Time;durP1;ratioP1;P1;durP2;ratioP2;P2;SDS_P1;SDS_P2;PMS_P1;PMS_P2;Temp;Humidity;BMP_temperature;BMP_pressure;BME280_temperature;BME280_humidity;BME280_pressure;Samples;Min_cycle;Max_cycle;Signal;HPM_P1;HPM_P2
2022/07/25 00:01:05;;;;;;;11.15;9.52;;;;;;;21.63;63.27;96227.34;5029472;28;20045;-77
2022/07/25 00:03:31;;;;;;;12.20;9.80;;;;;;;21.59;63.61;96221.00;5030324;28;20045;-76
2022/07/25 00:05:57;;;;;;;12.55;9.68;;;;;;;21.54;63.34;96221.41;5029955;28;20061;-76
2022/07/25 00:08:25;;;;;;;11.75;9.75;;;;;;;21.53;63.54;96211.50;5029480;28;20045;-77
2022/07/25 00:10:52;;;;;;;10.95;9.50;;;;;;;21.51;63.69;96213.88;5029816;28;20163;-77
2022/07/25 00:13:18;;;;;;;12.90;10.05;;;;;;;21.46;64.01;96214.25;5029398;28;20050;-76
2022/07/25 00:15:45;;;;;;;13.52;11.20;;;;;;;21.37;63.93;96208.31;5030051;28;20045;-76
2022/07/25 00:18:11;;;;;;;11.90;10.27;;;;;;;21.31;63.88;96205.13;5029203;28;20057;-76
2022/07/25 00:20:38;;;;;;;12.57;10.13;;;;;;;21.26;64.05;96208.25;5029642;28;20073;-76
2022/07/25 00:23:04;;;;;;;14.68;10.52;;;;;;;21.28;64.34;96205.88;5025037;28;20042;-77
2022/07/25 00:25:32;;;;;;;12.13;10.77;;;;;;;21.14;64.60;96210.56;5029912;28;20140;-77
2022/07/25 00:27:59;;;;;;;14.93;11.60;;;;;;;21.10;64.81;96197.50;5029788;28;20069;-76
2022/07/25 00:30:25;;;;;;;13.65;10.85;;;;;;;21.11;64.75;96207.41;5029156;28;20052;-76
2022/07/25 00:32:52;;;;;;;12.25;10.40;;;;;;;21.03;64.95;96204.97;5029767;28;20041;-76
2022/07/25 00:35:18;;;;;;;13.93;11.10;;;;;;;21.05;64.99;96203.44;5029202;28;20045;-77
2022/07/25 00:37:45;;;;;;;13.45;10.70;;;;;;;21.11;65.26;96199.09;5029847;28;20049;-76
2022/07/25 00:40:12;;;;;;;12.55;10.35;;;;;;;21.18;65.20;96194.75;5030025;28;20049;-76
2022/07/25 00:42:40;;;;;;;13.82;10.88;;;;;;;21.15;65.21;96196.34;5033669;28;20046;-76
2022/07/25 00:45:07;;;;;;;13.15;11.10;;;;;;;21.16;65.29;96197.13;5033313;28;20046;-77
2022/07/25 00:47:34;;;;;;;11.75;10.55;;;;;;;21.16;65.04;96194.38;5033315;28;20049;-77
2022/07/25 00:50:00;;;;;;;13.27;10.27;;;;;;;21.17;65.18;96198.72;5033462;28;20056;-76
2022/07/25 00:52:27;;;;;;;11.65;10.43;;;;;;;21.15;65.05;96185.25;5019536;28;20042;-77
2022/07/25 00:54:55;;;;;;;14.27;10.73;;;;;;;21.11;65.32;96184.47;5013786;28;20049;-77
2022/07/25 00:57:22;;;;;;;15.77;12.13;;;;;;;20.94;65.19;96180.44;5013112;28;20061;-76
2022/07/25 00:59:50;;;;;;;16.30;11.68;;;;;;;20.97;65.27;96176.88;5013488;28;20050;-76
2022/07/25 01:02:16;;;;;;;11.85;10.52;;;;;;;21.00;64.99;96176.13;5012826;28;20042;-76
2022/07/25 01:04:43;;;;;;;16.02;11.70;;;;;;;20.96;65.39;96175.31;5013524;28;20052;-76
2022/07/25 01:07:09;;;;;;;17.08;12.55;;;;;;;20.84;65.67;96170.13;5013099;28;20053;-75
2022/07/25 01:09:36;;;;;;;14.43;11.02;;;;;;;20.84;65.11;96170.13;5013405;28;20053;-76
2022/07/25 01:12:03;;;;;;;13.90;12.05;;;;;;;20.84;65.29;96175.66;5012655;28;20046;-76
2022/07/25 01:14:30;;;;;;;17.30;12.57;;;;;;;20.80;65.30;96177.63;5013225;28;20052;-76
2022/07/25 01:16:58;;;;;;;15.57;12.27;;;;;;;20.77;65.63;96175.59;5013295;28;20054;-75
2022/07/25 01:19:24;;;;;;;14.57;12.23;;;;;;;20.65;66.06;96168.44;5012940;28;20053;-76
2022/07/25 01:21:54;;;;;;;14.93;11.93;;;;;;;20.62;66.25;96169.25;5019182;28;20485;-78
2022/07/25 01:24:21;;;;;;;17.35;12.43;;;;;;;20.55;66.48;96164.44;5032521;28;20052;-77
2022/07/25 01:26:47;;;;;;;14.02;11.68;;;;;;;20.60;66.32;96166.06;5033613;28;20058;-76
2022/07/25 01:29:14;;;;;;;15.40;11.18;;;;;;;20.61;66.35;96166.84;5032738;28;20046;-76
2022/07/25 01:31:40;;;;;;;15.25;12.38;;;;;;;20.59;66.31;96162.50;5033300;28;20060;-76
2022/07/25 01:34:07;;;;;;;15.73;12.10;;;;;;;20.63;66.36;96164.50;5032629;28;20052;-76
2022/07/25 01:36:33;;;;;;;14.10;10.95;;;;;;;20.67;66.15;96159.75;5033180;28;20641;-76
2022/07/25 01:39:01;;;;;;;14.90;11.63;;;;;;;20.70;66.01;96148.72;5033092;28;20052;-76
2022/07/25 01:41:27;;;;;;;13.18;10.57;;;;;;;20.73;65.83;96158.22;5032785;28;20407;-77
2022/07/25 01:43:54;;;;;;;14.00;12.00;;;;;;;20.70;65.73;96147.91;5032868;28;20053;-76
2022/07/25 01:46:20;;;;;;;15.35;12.23;;;;;;;20.70;65.92;96153.44;5032688;28;20049;-76
2022/07/25 01:48:47;;;;;;;12.25;10.90;;;;;;;20.69;65.60;96151.88;5033061;28;20053;-76
2022/07/25 01:51:13;;;;;;;12.88;10.90;;;;;;;20.72;65.76;96151.09;5030266;28;20046;-77
2022/07/25 01:53:40;;;;;;;15.13;12.45;;;;;;;20.68;65.71;96153.06;5032643;28;20045;-76
2022/07/25 01:56:09;;;;;;;13.77;10.93;;;;;;;20.72;65.52;96148.31;5032355;28;20045;-76
2022/07/25 01:58:35;;;;;;;14.23;11.68;;;;;;;20.71;65.81;96155.03;5032463;28;20047;-76
2022/07/25 02:01:02;;;;;;;14.57;11.80;;;;;;;20.65;65.71;96151.06;5031856;28;20096;-75
2022/07/25 02:03:31;;;;;;;13.45;11.80;;;;;;;20.67;65.94;96148.69;5032628;28;20038;-76
2022/07/25 02:06:00;;;;;;;16.02;12.68;;;;;;;20.62;66.29;96146.28;5032250;28;20045;-76
2022/07/25 02:08:26;;;;;;;16.58;12.25;;;;;;;20.57;66.15;96137.19;5032058;28;20552;-75
2022/07/25 02:10:53;;;;;;;16.85;12.13;;;;;;;20.64;66.40;96130.13;5032242;28;20133;-76
2022/07/25 02:13:21;;;;;;;16.90;12.60;;;;;;;20.55;66.19;96131.25;5031505;28;20420;-76
2022/07/25 02:15:48;;;;;;;16.75;13.13;;;;;;;20.48;66.27;96128.47;5032113;28;20049;-76
2022/07/25 02:18:14;;;;;;;15.88;12.98;;;;;;;20.44;66.17;96124.06;5031737;28;20515;-75
2022/07/25 02:20:41;;;;;;;14.60;12.25;;;;;;;20.44;65.98;96124.84;5032046;28;20045;-75
2022/07/25 02:23:08;;;;;;;15.02;12.38;;;;;;;20.42;66.24;96138.28;5012587;28;20053;-75
2022/07/25 02:25:35;;;;;;;14.82;11.32;;;;;;;20.46;66.49;96143.81;5012128;28;20046;-74
2022/07/25 02:28:01;;;;;;;16.58;12.00;;;;;;;20.44;66.48;96129.59;5011748;28;20050;-76
2022/07/25 02:30:29;;;;;;;14.90;12.82;;;;;;;20.40;67.12;96123.25;5012093;28;20521;-76
2022/07/25 02:32:56;;;;;;;13.32;11.90;;;;;;;20.41;66.97;96125.63;5011930;28;20034;-76
2022/07/25 02:35:22;;;;;;;14.52;12.05;;;;;;;20.34;66.92;96128.34;5011283;28;20042;-75
2022/07/25 02:37:49;;;;;;;16.88;13.23;;;;;;;20.20;66.90;96118.03;5011792;28;20672;-75
2022/07/25 02:40:15;;;;;;;16.08;12.88;;;;;;;20.22;67.04;96123.16;5011317;28;20054;-77
2022/07/25 02:42:42;;;;;;;16.65;12.98;;;;;;;20.21;67.13;96122.38;5011950;28;20046;-76
2022/07/25 02:45:09;;;;;;;14.45;12.23;;;;;;;20.24;67.38;96123.56;5011184;28;20531;-76
2022/07/25 02:47:37;;;;;;;17.67;12.18;;;;;;;20.21;66.83;96119.59;5011250;28;20512;-75
2022/07/25 02:50:05;;;;;;;16.02;12.82;;;;;;;20.15;66.87;96120.31;5010980;28;20042;-75
2022/07/25 02:52:31;;;;;;;15.07;12.57;;;;;;;20.08;67.56;96119.09;5010077;28;20052;-79
2022/07/25 02:54:58;;;;;;;15.57;12.85;;;;;;;20.05;67.76;96124.63;5011436;28;20054;-77
2022/07/25 02:57:24;;;;;;;15.32;12.35;;;;;;;20.04;68.05;96123.81;5011027;28;20064;-76
2022/07/25 02:59:51;;;;;;;16.02;12.73;;;;;;;20.01;68.14;96124.59;5011366;28;20061;-74
2022/07/25 03:02:18;;;;;;;16.63;13.43;;;;;;;19.98;68.21;96119.03;5010076;28;20045;-75
2022/07/25 03:04:45;;;;;;;15.98;12.73;;;;;;;19.91;68.44;96119.78;5010832;28;20041;-75
2022/07/25 03:07:12;;;;;;;16.77;12.80;;;;;;;19.91;68.68;96114.28;5010804;28;20046;-76
2022/07/25 03:09:38;;;;;;;14.73;12.05;;;;;;;19.87;68.70;96118.97;5011369;28;20456;-75
2022/07/25 03:12:05;;;;;;;15.20;13.10;;;;;;;19.86;68.99;96122.91;5010412;28;20065;-76
2022/07/25 03:14:32;;;;;;;17.55;13.18;;;;;;;19.83;68.89;96123.66;5011106;28;20723;-76
2022/07/25 03:16:58;;;;;;;17.55;13.55;;;;;;;19.77;69.07;96126.00;5010852;28;20050;-76
2022/07/25 03:19:25;;;;;;;14.75;12.85;;;;;;;19.69;69.38;96123.59;5010699;28;20509;-76
2022/07/25 03:21:53;;;;;;;15.65;13.20;;;;;;;19.63;69.85;96133.38;5017449;28;20041;-75
2022/07/25 03:24:19;;;;;;;18.52;12.77;;;;;;;19.58;70.23;96134.53;5030183;28;20041;-76
2022/07/25 03:26:46;;;;;;;16.73;13.05;;;;;;;19.56;70.46;96125.81;5030647;28;20056;-76
2022/07/25 03:29:12;;;;;;;15.35;12.25;;;;;;;19.53;70.53;96132.91;5029991;28;20045;-76
2022/07/25 03:31:39;;;;;;;18.65;13.50;;;;;;;19.52;70.47;96124.97;5030556;28;20038;-75
2022/07/25 03:34:05;;;;;;;15.88;13.07;;;;;;;19.48;70.71;96124.97;5029932;28;20052;-76
2022/07/25 03:36:32;;;;;;;17.10;13.60;;;;;;;19.45;70.82;96122.16;5030391;28;20041;-76
2022/07/25 03:39:00;;;;;;;13.80;12.30;;;;;;;19.36;70.99;96118.91;5030437;28;20054;-77
2022/07/25 03:41:26;;;;;;;15.27;12.77;;;;;;;19.31;71.47;96111.78;5030150;28;20068;-76
2022/07/25 03:43:53;;;;;;;15.48;12.88;;;;;;;19.25;71.55;96116.06;5030123;28;20396;-78
2022/07/25 03:46:19;;;;;;;16.00;12.70;;;;;;;19.22;71.74;96117.63;5029614;28;20047;-75
2022/07/25 03:48:46;;;;;;;14.88;12.88;;;;;;;19.23;72.01;96116.44;5030159;28;20120;-76
2022/07/25 03:51:13;;;;;;;14.43;12.45;;;;;;;19.25;71.97;96116.06;5026138;28;20049;-76
2022/07/25 03:56:21;;;;;;;16.60;13.05;;;;;;;19.20;72.28;96116.41;5009024;28;20064;-77
2022/07/25 03:58:47;;;;;;;16.23;13.35;;;;;;;19.22;72.62;96114.06;5010376;28;20065;-76
2022/07/25 04:01:14;;;;;;;18.60;14.10;;;;;;;19.22;72.68;96111.31;5009666;28;20057;-76
2022/07/25 04:03:40;;;;;;;17.73;13.98;;;;;;;19.25;72.64;96113.28;5010420;28;20041;-76
2022/07/25 04:06:07;;;;;;;18.40;14.02;;;;;;;19.25;72.91;96111.31;5009785;28;20157;-77
2022/07/25 04:08:33;;;;;;;18.33;14.30;;;;;;;19.25;72.62;96105.00;5010304;28;20045;-76
2022/07/25 04:11:00;;;;;;;19.63;14.00;;;;;;;19.26;72.75;96112.13;5010190;28;20057;-76
2022/07/25 04:13:28;;;;;;;15.98;12.82;;;;;;;19.26;72.69;96107.41;5009688;28;20066;-76
2022/07/25 04:15:55;;;;;;;19.10;13.73;;;;;;;19.33;72.77;96109.44;5016677;28;20042;-76
2022/07/25 04:18:21;;;;;;;17.70;13.60;;;;;;;19.32;72.79;96107.06;5016165;28;20521;-78
2022/07/25 04:20:48;;;;;;;18.17;14.13;;;;;;;19.31;72.31;96111.78;5016824;28;20072;-75
2022/07/25 04:23:14;;;;;;;17.30;13.73;;;;;;;19.31;72.31;96109.00;5014895;28;20064;-76
2022/07/25 04:25:41;;;;;;;19.02;13.48;;;;;;;19.36;72.50;96105.09;5016685;28;20045;-75
2022/07/25 04:28:07;;;;;;;15.45;13.43;;;;;;;19.36;72.70;96105.91;5016124;28;20053;-77
2022/07/25 04:30:35;;;;;;;16.55;13.23;;;;;;;19.41;72.58;96105.56;5016614;28;20045;-76
2022/07/25 04:33:02;;;;;;;15.93;13.38;;;;;;;19.42;72.87;96104.41;5016239;28;20424;-77
2022/07/25 04:35:28;;;;;;;16.70;13.38;;;;;;;19.43;72.86;96100.47;5016420;28;20052;-76
2022/07/25 04:37:54;;;;;;;19.98;13.77;;;;;;;19.47;72.97;96100.47;5016502;28;20441;-76
2022/07/25 04:40:21;;;;;;;16.73;13.88;;;;;;;19.49;72.61;96090.66;5016125;28;20053;-76
2022/07/25 04:42:47;;;;;;;19.05;13.52;;;;;;;19.55;72.91;96094.63;5016536;28;20057;-76
2022/07/25 04:45:14;;;;;;;17.90;13.52;;;;;;;19.60;73.26;96098.25;5015769;28;20045;-76
2022/07/25 04:47:42;;;;;;;17.23;12.98;;;;;;;19.66;72.74;96099.47;5016487;28;20042;-76
2022/07/25 04:50:10;;;;;;;18.17;15.63;;;;;;;19.64;71.46;96099.09;5015872;28;20050;-76
2022/07/25 04:52:36;;;;;;;15.82;13.75;;;;;;;19.61;71.75;96100.63;5016079;28;20056;-76
2022/07/25 04:55:03;;;;;;;15.75;12.60;;;;;;;19.68;72.06;96097.13;5015978;28;20046;-76
2022/07/25 04:57:30;;;;;;;18.52;13.63;;;;;;;19.75;72.15;96095.22;5016212;28;20390;-77
2022/07/25 04:59:57;;;;;;;17.15;13.65;;;;;;;19.84;72.36;96096.84;5016304;28;20104;-76
2022/07/25 05:02:24;;;;;;;19.52;14.45;;;;;;;19.77;72.13;96092.06;5015751;28;20517;-76
2022/07/25 05:04:52;;;;;;;19.17;14.88;;;;;;;19.75;71.45;96089.69;5016105;28;20461;-77
2022/07/25 05:07:19;;;;;;;16.27;14.32;;;;;;;19.65;71.51;96095.13;5015745;28;20057;-76
2022/07/25 05:09:45;;;;;;;18.55;15.43;;;;;;;19.70;71.64;96098.34;5016313;28;20041;-76
2022/07/25 05:12:12;;;;;;;15.60;13.85;;;;;;;19.82;71.31;96097.22;5015625;28;20089;-77
2022/07/25 05:14:38;;;;;;;17.90;14.35;;;;;;;19.84;71.78;96086.59;5016239;28;20042;-76
2022/07/25 05:17:05;;;;;;;14.48;12.95;;;;;;;19.86;71.65;96089.75;5015697;28;20421;-75
2022/07/25 05:19:32;;;;;;;15.23;13.23;;;;;;;19.93;71.31;96089.78;5016199;28;20057;-75
2022/07/25 05:21:59;;;;;;;15.50;13.15;;;;;;;20.05;71.56;96088.72;5015040;28;20574;-75
2022/07/25 05:24:26;;;;;;;20.35;15.57;;;;;;;19.90;71.48;96087.03;5015646;28;20766;-77
2022/07/25 05:26:53;;;;;;;20.25;15.88;;;;;;;19.66;71.95;96082.91;5012773;28;20050;-75
2022/07/25 05:29:19;;;;;;;18.75;14.18;;;;;;;19.85;71.43;96085.41;5012609;28;20072;-76
2022/07/25 05:31:46;;;;;;;18.92;13.75;;;;;;;20.02;71.32;96079.19;5013180;28;20042;-74
2022/07/25 05:34:14;;;;;;;15.02;12.98;;;;;;;20.19;71.61;96086.00;5012530;28;20046;-76
2022/07/25 05:36:40;;;;;;;17.35;13.65;;;;;;;20.28;72.08;96082.91;5012860;28;20042;-76
2022/07/25 05:39:08;;;;;;;14.68;11.82;;;;;;;20.38;71.48;96082.16;5012396;28;20050;-76
2022/07/25 05:41:35;;;;;;;16.25;13.82;;;;;;;20.33;71.06;96085.28;5012863;28;20046;-77
2022/07/25 05:44:01;;;;;;;17.50;14.18;;;;;;;20.44;70.98;96080.59;5009411;28;20098;-76
2022/07/25 05:46:31;;;;;;;14.63;13.07;;;;;;;20.50;70.74;96079.06;5010322;28;20056;-82
2022/07/25 05:48:58;;;;;;;17.60;13.52;;;;;;;20.51;70.89;96080.66;5016012;28;20107;-78
2022/07/25 05:51:25;;;;;;;15.98;12.70;;;;;;;20.66;70.77;96080.72;5017386;28;20056;-85
2022/07/25 05:53:53;;;;;;;15.18;13.02;;;;;;;20.80;70.17;96080.75;5043293;28;20057;-79
2022/07/25 05:56:24;;;;;;;17.80;13.88;;;;;;;20.84;70.00;96085.13;5028028;28;20109;-83
2022/07/25 05:58:51;;;;;;;16.42;13.25;;;;;;;20.85;70.03;96083.16;5027869;28;20073;-86
2022/07/25 06:01:18;;;;;;;18.55;12.88;;;;;;;20.97;70.44;96080.00;5026292;28;20054;-84
2022/07/25 06:03:45;;;;;;;16.08;13.45;;;;;;;21.04;70.30;96074.50;5022936;28;20078;-84
2022/07/25 06:06:12;;;;;;;16.60;14.43;;;;;;;21.15;69.88;96073.72;5024914;28;20505;-82
2022/07/25 06:08:39;;;;;;;19.45;14.43;;;;;;;21.16;69.99;96067.00;5024858;28;20294;-85
2022/07/25 06:11:07;;;;;;;19.95;14.38;;;;;;;21.10;69.86;96064.63;5020944;28;20057;-79
2022/07/25 06:13:35;;;;;;;17.33;12.43;;;;;;;21.33;69.92;96069.00;5012200;28;20046;-76
2022/07/25 06:16:02;;;;;;;16.23;13.25;;;;;;;21.36;69.34;96071.00;5025969;28;20046;-77
2022/07/25 06:18:29;;;;;;;17.48;14.07;;;;;;;21.30;67.97;96064.28;5028735;28;20029;-87
2022/07/25 06:20:55;;;;;;;14.98;11.98;;;;;;;21.42;67.29;96061.09;5010508;28;20042;-83
2022/07/25 06:23:22;;;;;;;14.20;12.65;;;;;;;21.59;67.66;96063.06;5010186;28;20045;-82
2022/07/25 06:25:48;;;;;;;16.30;12.75;;;;;;;21.60;67.41;96066.63;5014487;28;20050;-81
2022/07/25 06:28:15;;;;;;;16.55;12.85;;;;;;;21.60;67.83;96061.88;5027229;28;20057;-83
2022/07/25 06:30:43;;;;;;;14.40;12.90;;;;;;;21.67;67.25;96060.31;5024818;28;20480;-83
2022/07/25 06:33:11;;;;;;;18.00;14.57;;;;;;;21.61;67.72;96060.72;5022949;28;20072;-81
2022/07/25 06:35:37;;;;;;;16.40;13.13;;;;;;;21.75;68.32;96051.56;5024546;28;20536;-80
2022/07/25 06:38:04;;;;;;;14.25;12.60;;;;;;;21.87;68.15;96064.22;5025785;28;20034;-83
2022/07/25 06:40:31;;;;;;;17.05;13.00;;;;;;;21.97;68.24;96057.88;5021371;28;20057;-83
2022/07/25 06:42:58;;;;;;;16.85;13.55;;;;;;;21.98;67.53;96059.47;5027661;28;20053;-82
2022/07/25 06:45:24;;;;;;;15.35;13.60;;;;;;;22.06;68.11;96055.47;5022528;28;20056;-84
2022/07/25 06:47:52;;;;;;;14.27;11.75;;;;;;;22.28;67.48;96058.22;5026829;28;20144;-83
2022/07/25 06:50:19;;;;;;;16.10;14.00;;;;;;;22.16;66.48;96050.34;5024709;28;20052;-82
2022/07/25 06:52:49;;;;;;;18.33;14.10;;;;;;;22.17;66.69;96047.16;5043186;28;20042;-83
2022/07/25 06:55:15;;;;;;;17.17;13.70;;;;;;;22.33;66.51;96050.28;5034561;28;20057;-82
2022/07/25 06:57:42;;;;;;;16.52;13.95;;;;;;;22.26;66.40;96041.19;5029858;28;20046;-86
2022/07/25 07:00:11;;;;;;;16.08;13.80;;;;;;;22.39;66.45;96039.56;5035863;28;20564;-86
2022/07/25 07:02:48;;;;;;;16.40;12.88;;;;;;;22.53;66.36;96039.50;5037810;28;20415;-81
2022/07/25 07:05:15;;;;;;;21.67;13.50;;;;;;;22.62;65.50;96039.84;5035193;28;20519;-76
2022/07/25 07:07:42;;;;;;;17.10;12.30;;;;;;;22.78;65.63;96038.59;5006179;28;20052;-75
2022/07/25 07:10:09;;;;;;;15.82;13.80;;;;;;;22.75;65.29;96045.72;5006545;28;20517;-75
2022/07/25 07:12:36;;;;;;;16.73;12.93;;;;;;;22.88;65.66;96032.22;5006807;28;20061;-77
2022/07/25 07:15:03;;;;;;;16.60;13.70;;;;;;;23.08;65.17;96036.06;5005708;28;20578;-77
2022/07/25 07:17:29;;;;;;;14.70;13.05;;;;;;;23.11;64.41;96029.66;5006825;28;20049;-78
2022/07/25 07:19:56;;;;;;;16.65;13.77;;;;;;;23.14;64.24;96028.06;5006480;28;20050;-76
2022/07/25 07:22:24;;;;;;;13.40;12.00;;;;;;;23.34;64.21;96031.91;5016817;28;20515;-75
2022/07/25 07:24:50;;;;;;;14.43;12.70;;;;;;;23.48;63.63;96025.41;5016206;28;20065;-76
2022/07/25 07:27:17;;;;;;;16.30;13.13;;;;;;;23.57;64.53;96034.06;5010177;28;20049;-77
2022/07/25 07:29:43;;;;;;;14.35;12.52;;;;;;;23.67;63.41;96024.88;5010456;28;20044;-77
2022/07/25 07:32:10;;;;;;;15.05;11.73;;;;;;;23.82;61.45;96027.53;5008607;28;20042;-77
2022/07/25 07:34:37;;;;;;;13.57;10.77;;;;;;;23.89;59.74;96019.91;5009864;28;20042;-76
2022/07/25 07:37:04;;;;;;;14.00;12.50;;;;;;;24.05;60.93;96019.31;5010054;28;20057;-76
2022/07/25 07:39:32;;;;;;;14.35;11.65;;;;;;;24.26;60.00;96017.50;5009481;28;20054;-76
2022/07/25 07:41:58;;;;;;;11.82;10.63;;;;;;;24.44;59.63;96015.34;5010307;28;20046;-75
2022/07/25 07:44:25;;;;;;;14.63;11.55;;;;;;;24.55;58.47;96013.22;5010135;28;20516;-76
2022/07/25 07:46:51;;;;;;;13.93;11.35;;;;;;;24.70;59.41;96011.81;5010326;28;20520;-76
2022/07/25 07:49:18;;;;;;;14.00;11.52;;;;;;;24.83;58.65;96011.25;5009079;28;20516;-78
2022/07/25 07:51:44;;;;;;;16.38;12.13;;;;;;;24.96;57.38;96020.63;5009830;28;20050;-76
2022/07/25 07:56:56;;;;;;;13.23;11.20;;;;;;;25.18;57.61;96005.16;5010465;28;20069;-76
2022/07/25 07:59:23;;;;;;;12.98;11.27;;;;;;;25.37;58.17;96006.47;5009917;28;20657;-75
2022/07/25 08:01:49;;;;;;;13.20;11.48;;;;;;;25.53;56.49;96014.19;5010166;28;20508;-78
2022/07/25 08:04:16;;;;;;;12.70;10.95;;;;;;;25.71;55.97;96009.06;5009861;28;20053;-76
2022/07/25 08:06:42;;;;;;;13.45;11.50;;;;;;;25.94;54.59;96010.28;5010329;28;20501;-76
2022/07/25 08:09:09;;;;;;;12.13;10.50;;;;;;;26.63;52.57;96011.34;5009576;28;20069;-77
2022/07/25 08:11:35;;;;;;;11.73;10.43;;;;;;;27.28;50.00;96019.84;5010519;28;20053;-77
2022/07/25 08:14:05;;;;;;;12.70;11.27;;;;;;;27.79;48.79;96017.44;5009407;28;20052;-77
2022/07/25 08:16:32;;;;;;;14.15;10.85;;;;;;;28.25;48.90;96009.81;5010162;28;20046;-78
2022/07/25 08:18:58;;;;;;;12.18;10.50;;;;;;;28.85;49.08;96007.28;5009869;28;20064;-79
2022/07/25 08:21:25;;;;;;;11.82;10.63;;;;;;;29.10;46.16;96005.75;5007990;28;20066;-79
2022/07/25 08:23:52;;;;;;;11.65;10.00;;;;;;;29.17;45.89;96011.13;5008581;28;20042;-79
2022/07/25 08:26:18;;;;;;;11.98;10.73;;;;;;;29.19;45.12;96008.69;5004834;28;20057;-78
2022/07/25 08:28:45;;;;;;;13.43;10.68;;;;;;;29.01;45.35;96006.41;5004962;28;20405;-78
2022/07/25 08:31:13;;;;;;;11.85;10.45;;;;;;;29.18;45.15;96006.31;5004387;28;20050;-78
2022/07/25 08:33:39;;;;;;;11.70;9.70;;;;;;;29.33;46.15;96005.41;5004121;28;20046;-78
2022/07/25 08:36:09;;;;;;;12.30;9.70;;;;;;;29.40;44.49;96003.63;5004706;28;20508;-77
2022/07/25 08:38:36;;;;;;;16.33;11.27;;;;;;;29.29;44.01;95999.16;5004638;28;20555;-77
2022/07/25 08:41:03;;;;;;;12.13;10.82;;;;;;;29.29;43.08;95998.38;5004558;28;20416;-77
2022/07/25 08:43:31;;;;;;;16.30;10.77;;;;;;;28.98;43.81;96001.72;5005113;28;20054;-79
2022/07/25 08:46:01;;;;;;;15.80;10.98;;;;;;;28.96;44.53;96000.59;5005325;28;20547;-79
2022/07/25 08:48:29;;;;;;;14.90;10.70;;;;;;;29.07;43.75;95995.44;5004651;28;20045;-77
2022/07/25 08:50:57;;;;;;;14.75;10.73;;;;;;;29.21;43.63;95985.78;5004959;28;20041;-78
2022/07/25 08:53:24;;;;;;;14.05;10.25;;;;;;;29.37;43.63;95996.88;5004380;28;20050;-78
2022/07/25 08:55:50;;;;;;;12.40;9.60;;;;;;;29.36;43.78;95992.50;5004608;28;20108;-80
2022/07/25 08:58:18;;;;;;;11.35;10.15;;;;;;;29.41;43.03;95985.56;5004277;28;20050;-80
2022/07/25 09:00:44;;;;;;;12.82;10.50;;;;;;;29.68;42.70;95982.28;5004535;28;20441;-79
2022/07/25 09:03:12;;;;;;;11.40;10.15;;;;;;;29.85;42.94;95975.25;5018099;28;20053;-78
2022/07/25 09:05:40;;;;;;;11.85;10.50;;;;;;;30.00;41.83;95972.72;5028055;28;20049;-79
2022/07/25 09:08:08;;;;;;;14.65;10.43;;;;;;;30.05;41.51;95977.78;5027318;28;20056;-78
2022/07/25 09:10:35;;;;;;;11.07;9.98;;;;;;;30.27;42.61;95981.41;5027815;28;20493;-78
2022/07/25 09:13:06;;;;;;;13.05;10.23;;;;;;;30.31;41.19;95973.63;5027405;28;20581;-78
2022/07/25 09:15:35;;;;;;;10.95;9.82;;;;;;;30.28;41.59;95968.13;5027510;28;20464;-79
2022/07/25 09:18:04;;;;;;;12.05;10.85;;;;;;;30.39;41.98;95963.72;5027390;28;20423;-77
2022/07/25 09:20:40;;;;;;;13.68;10.20;;;;;;;30.61;43.33;95965.72;5028010;28;20077;-78
2022/07/25 09:23:07;;;;;;;13.30;10.05;;;;;;;30.81;41.86;95968.19;5025579;28;20049;-76
2022/07/25 09:25:34;;;;;;;13.52;10.43;;;;;;;30.81;41.91;95966.16;5027320;28;20050;-77
2022/07/25 09:28:10;;;;;;;14.98;11.10;;;;;;;30.79;42.14;95967.84;5027824;28;20137;-79
2022/07/25 09:30:37;;;;;;;11.90;10.18;;;;;;;31.17;42.09;95964.75;5027393;28;20069;-78
2022/07/25 09:33:04;;;;;;;16.77;10.65;;;;;;;31.30;40.91;95962.63;5027176;28;20128;-79
2022/07/25 09:35:32;;;;;;;14.32;10.05;;;;;;;31.54;41.07;95959.25;5027216;28;20053;-80
2022/07/25 09:38:09;;;;;;;12.07;10.23;;;;;;;31.64;40.17;95964.44;5027336;28;20057;-79
2022/07/25 09:40:35;;;;;;;13.23;9.57;;;;;;;31.65;41.48;95962.41;5027176;28;20065;-80
2022/07/25 09:43:02;;;;;;;12.43;10.02;;;;;;;31.63;39.75;95956.44;5026875;28;20527;-78
2022/07/25 09:45:29;;;;;;;11.00;9.90;;;;;;;31.79;39.92;95958.97;5027045;28;20052;-77
2022/07/25 09:47:57;;;;;;;11.77;10.52;;;;;;;31.81;38.73;95962.13;5027183;28;20056;-75
2022/07/25 09:50:25;;;;;;;14.63;9.63;;;;;;;31.59;39.22;95950.22;5026625;28;20135;-77
2022/07/25 09:52:53;;;;;;;10.73;9.63;;;;;;;31.49;39.36;95951.44;5010456;28;20065;-79
2022/07/25 09:55:21;;;;;;;12.80;9.75;;;;;;;31.27;38.32;95955.13;5006648;28;20077;-78
2022/07/25 09:57:48;;;;;;;12.88;11.10;;;;;;;31.26;39.05;95947.16;5007072;28;20050;-77
2022/07/25 10:00:19;;;;;;;11.60;10.40;;;;;;;31.07;39.45;95943.47;5006760;28;20058;-77
2022/07/25 10:02:56;;;;;;;12.07;10.20;;;;;;;31.37;40.85;95939.81;5007389;28;20409;-76
2022/07/25 10:05:36;;;;;;;10.93;9.82;;;;;;;31.52;41.01;95950.50;5006788;28;20781;-79
2022/07/25 10:08:06;;;;;;;10.73;9.63;;;;;;;31.53;39.27;95940.78;5006749;28;20676;-78
2022/07/25 10:10:39;;;;;;;13.32;10.55;;;;;;;31.73;39.78;95932.69;5007188;28;20053;-78
2022/07/25 10:13:09;;;;;;;12.30;10.43;;;;;;;31.95;39.43;95933.38;5006280;28;20421;-78
2022/07/25 10:15:47;;;;;;;11.52;9.82;;;;;;;31.94;38.11;95931.00;5006746;28;20052;-80
2022/07/25 10:18:14;;;;;;;11.63;9.95;;;;;;;31.68;38.53;95936.91;5006440;28;20568;-80
2022/07/25 10:20:42;;;;;;;11.15;9.90;;;;;;;31.80;39.49;95935.22;5006646;28;20704;-76
2022/07/25 10:23:20;;;;;;;15.23;10.27;;;;;;;31.67;40.39;95928.94;5022845;28;20049;-77
2022/07/25 10:25:59;;;;;;;12.10;10.15;;;;;;;31.91;39.30;95932.75;5026578;28;20057;-79
2022/07/25 10:28:36;;;;;;;10.82;9.57;;;;;;;32.11;38.80;95928.69;5025901;28;20052;-80
2022/07/25 10:31:14;;;;;;;12.98;9.13;;;;;;;32.34;39.99;95922.38;5026173;28;20060;-80
2022/07/25 10:33:41;;;;;;;10.82;9.10;;;;;;;32.38;37.76;95919.44;5026342;28;20046;-79
2022/07/25 10:36:09;;;;;;;12.23;9.43;;;;;;;32.57;38.36;95914.50;5025762;28;20119;-78
2022/07/25 10:38:39;;;;;;;13.88;9.73;;;;;;;32.38;37.29;95910.97;5026016;28;20420;-78
2022/07/25 10:41:09;;;;;;;14.23;8.48;;;;;;;32.43;35.48;95916.75;5025556;28;20068;-79
2022/07/25 10:43:38;;;;;;;10.05;8.95;;;;;;;32.50;37.28;95912.03;5026204;28;20045;-77
2022/07/25 10:46:12;;;;;;;9.93;8.93;;;;;;;32.59;36.78;95909.19;5025496;28;20471;-79
2022/07/25 10:48:39;;;;;;;10.38;8.93;;;;;;;32.72;37.04;95898.50;5026315;28;20053;-78
2022/07/25 10:51:08;;;;;;;12.50;9.27;;;;;;;32.74;35.96;95898.81;5023300;28;20060;-77
2022/07/25 10:53:37;;;;;;;9.82;8.18;;;;;;;32.66;35.50;95894.75;5006521;28;20057;-78
2022/07/25 10:56:08;;;;;;;11.07;8.32;;;;;;;32.80;35.07;95894.09;5005661;28;20073;-77
2022/07/25 10:58:43;;;;;;;9.98;8.10;;;;;;;32.52;34.38;95895.41;5006475;28;20097;-78
2022/07/25 11:01:09;;;;;;;8.55;7.65;;;;;;;32.58;33.51;95893.53;5005699;28;20049;-78
2022/07/25 11:03:36;;;;;;;11.35;8.05;;;;;;;32.75;34.36;95891.13;5005800;28;20050;-81
2022/07/25 11:06:02;;;;;;;10.90;8.02;;;;;;;32.81;33.33;95886.41;5005777;28;20052;-79
2022/07/25 11:08:32;;;;;;;8.30;7.50;;;;;;;32.96;34.87;95890.91;5006279;28;20053;-77
2022/07/25 11:10:59;;;;;;;8.93;7.63;;;;;;;33.22;33.08;95891.22;5006128;28;20054;-77
2022/07/25 11:13:27;;;;;;;8.57;6.75;;;;;;;33.24;33.40;95887.94;5005622;28;20536;-79
2022/07/25 11:15:57;;;;;;;8.95;7.45;;;;;;;33.26;32.63;95885.41;5005564;28;20492;-77
2022/07/25 11:18:35;;;;;;;9.05;7.22;;;;;;;33.27;32.68;95886.97;5005379;28;20540;-77
2022/07/25 11:21:03;;;;;;;8.30;7.35;;;;;;;33.31;33.29;95879.13;5004347;28;20077;-77
2022/07/25 11:23:30;;;;;;;9.60;7.40;;;;;;;33.09;33.01;95867.31;5024819;28;20049;-77
2022/07/25 11:26:08;;;;;;;9.68;7.03;;;;;;;33.09;33.27;95876.56;5012534;28;20046;-80